createdAt,value
2019-04-27T00:04:20.002Z,10.31
2019-04-27T00:10:36.524Z,10.28
2019-04-27T00:16:51.603Z,10.21
2019-04-27T00:23:00.759Z,10.18
2019-04-27T00:29:05.726Z,10.15
2019-04-27T00:35:13.649Z,10.11
2019-04-27T00:41:20.544Z,10.20
2019-04-27T00:47:25.173Z,9.91
2019-04-27T00:53:29.739Z,9.88
2019-04-27T00:59:48.089Z,9.69
2019-04-27T01:05:53.158Z,9.67
2019-04-27T01:11:57.770Z,9.55
2019-04-27T01:18:11.957Z,9.81
2019-04-27T01:24:08.999Z,9.72
2019-04-27T01:30:18.933Z,9.56
2019-04-27T01:36:23.539Z,9.57
2019-04-27T01:42:29.469Z,9.35
2019-04-27T01:48:34.247Z,9.18
2019-04-27T01:54:40.822Z,9.23
2019-04-27T02:00:47.240Z,9.21
2019-04-27T02:06:53.441Z,9.31
2019-04-27T02:12:58.697Z,9.31
2019-04-27T02:19:03.389Z,9.30
2019-04-27T02:25:09.355Z,9.49
2019-04-27T02:31:13.683Z,9.26
2019-04-27T02:37:20.090Z,9.18
2019-04-27T02:43:29.609Z,9.19
2019-04-27T02:49:34.413Z,9.02
2019-04-27T02:55:39.818Z,8.86
2019-04-27T03:01:53.541Z,8.63
2019-04-27T03:07:59.725Z,8.63
2019-04-27T03:14:32.586Z,8.35
2019-04-27T03:20:36.076Z,8.29
2019-04-27T03:26:42.440Z,8.22
2019-04-27T03:32:54.687Z,8.37
2019-04-27T03:38:53.474Z,8.11
2019-04-27T03:45:00.356Z,8.28
2019-04-27T03:51:10.082Z,8.51
2019-04-27T03:57:22.540Z,8.38
2019-04-27T04:03:29.567Z,8.39
2019-04-27T04:09:40.910Z,8.38
2019-04-27T04:15:52.184Z,8.46
2019-04-27T04:21:57.083Z,8.39
2019-04-27T04:28:01.632Z,8.35
2019-04-27T04:34:06.605Z,8.29
2019-04-27T04:40:11.486Z,8.31
2019-04-27T04:46:16.069Z,8.46
2019-04-27T04:52:20.691Z,8.75
2019-04-27T04:58:25.247Z,8.84
2019-04-27T05:04:29.821Z,8.88
2019-04-27T05:10:34.434Z,9.09
2019-04-27T05:16:39.163Z,9.03
2019-04-27T05:22:43.918Z,9.55
2019-04-27T05:28:49.205Z,9.59
2019-04-27T05:34:53.807Z,9.50
2019-04-27T05:40:58.729Z,9.54
2019-04-27T05:47:05.351Z,9.87
2019-04-27T05:53:11.242Z,9.80
2019-04-27T05:59:15.884Z,9.99
2019-04-27T06:05:22.814Z,10.15
2019-04-27T06:11:28.434Z,10.36
2019-04-27T06:17:33.245Z,10.35
2019-04-27T06:23:39.051Z,10.22
2019-04-27T06:29:43.723Z,10.13
2019-04-27T06:35:49.557Z,10.73
2019-04-27T06:41:54.223Z,11.03
2019-04-27T06:47:59.531Z,11.43
2019-04-27T06:54:04.390Z,11.83
2019-04-27T07:00:09.786Z,12.21
2019-04-27T07:06:14.410Z,12.44
2019-04-27T07:12:19.238Z,12.48
2019-04-27T07:18:23.767Z,12.92
2019-04-27T07:24:29.224Z,13.50
2019-04-27T07:30:33.991Z,14.02
2019-04-27T07:36:39.303Z,14.26
2019-04-27T07:42:45.928Z,14.99
2019-04-27T07:48:50.963Z,14.85
2019-04-27T07:54:55.872Z,14.73
2019-04-27T08:01:00.435Z,14.76
2019-04-27T08:07:05.081Z,15.56
2019-04-27T08:13:09.689Z,16.07
2019-04-27T08:19:14.331Z,16.52
2019-04-27T08:25:19.061Z,16.13
2019-04-27T08:31:25.376Z,16.72
2019-04-27T08:37:38.763Z,17.07
2019-04-27T08:43:43.329Z,16.70
2019-04-27T08:49:49.180Z,16.01
2019-04-27T08:55:53.929Z,17.13
2019-04-27T09:01:58.794Z,17.87
2019-04-27T09:08:18.947Z,18.65
2019-04-27T09:14:37.133Z,18.06
2019-04-27T09:20:49.247Z,17.55
2019-04-27T09:26:53.791Z,17.64
2019-04-27T09:32:58.671Z,18.35
2019-04-27T09:39:03.288Z,18.16
2019-04-27T09:45:09.053Z,18.30
2019-04-27T09:51:13.625Z,17.83
2019-04-27T09:57:18.184Z,17.77
2019-04-27T10:03:22.816Z,17.47
2019-04-27T10:09:29.636Z,16.59
2019-04-27T10:15:35.546Z,16.03
2019-04-27T10:21:39.993Z,17.53
2019-04-27T10:27:46.183Z,19.61
2019-04-27T10:33:50.742Z,21.51
2019-04-27T10:39:56.061Z,20.96
2019-04-27T10:46:00.837Z,19.38
2019-04-27T10:52:06.068Z,19.30
2019-04-27T10:58:10.632Z,19.12
2019-04-27T11:04:19.573Z,18.75
2019-04-27T11:10:25.897Z,20.60
2019-04-27T11:16:30.669Z,20.51
2019-04-27T11:22:36.304Z,19.14
2019-04-27T11:28:42.731Z,17.70
2019-04-27T11:35:05.820Z,16.98
2019-04-27T11:41:10.517Z,16.05
2019-04-27T11:47:16.230Z,15.80
2019-04-27T11:53:23.194Z,16.14
2019-04-27T11:59:27.279Z,16.90
2019-04-27T12:05:32.109Z,16.91
2019-04-27T12:11:36.730Z,16.76
2019-04-27T12:17:41.346Z,16.66
2019-04-27T12:23:47.247Z,16.80
2019-04-27T12:30:06.245Z,15.89
2019-04-27T12:36:11.073Z,15.69
2019-04-27T12:42:16.070Z,15.89
2019-04-27T12:48:20.869Z,16.37
2019-04-27T12:54:27.073Z,17.00
2019-04-27T13:00:39.706Z,18.67
2019-04-27T13:06:44.342Z,17.62
2019-04-27T13:12:48.954Z,16.00
2019-04-27T13:18:53.592Z,16.00
2019-04-27T13:24:58.512Z,15.47
2019-04-27T13:31:03.085Z,15.13
2019-04-27T13:37:09.262Z,15.01
2019-04-27T13:43:21.447Z,15.04
2019-04-27T13:49:43.944Z,14.57
2019-04-27T13:55:48.627Z,14.31
2019-04-27T14:01:53.228Z,14.39
2019-04-27T14:07:59.149Z,14.47
2019-04-27T14:14:03.905Z,14.19
2019-04-27T14:20:09.713Z,13.65
2019-04-27T14:26:14.367Z,13.54
2019-04-27T14:32:19.000Z,13.73
2019-04-27T14:38:23.565Z,13.73
2019-04-27T14:44:29.276Z,13.39
2019-04-27T14:50:33.828Z,13.73
2019-04-27T14:56:38.840Z,13.62
2019-04-27T15:02:43.458Z,13.67
2019-04-27T15:08:49.225Z,13.49
2019-04-27T15:14:57.276Z,13.78
2019-04-27T15:21:02.586Z,14.31
2019-04-27T15:27:08.259Z,14.64
2019-04-27T15:33:30.535Z,14.71
2019-04-27T15:39:52.772Z,14.50
2019-04-27T15:45:58.612Z,14.08
2019-04-27T15:52:04.657Z,14.13
2019-04-27T15:58:09.787Z,13.14
2019-04-27T16:04:14.559Z,11.28
2019-04-27T16:10:20.108Z,10.24
2019-04-27T16:16:29.215Z,9.55
2019-04-27T16:22:31.601Z,9.13
2019-04-27T16:28:36.148Z,8.98
2019-04-27T16:34:41.319Z,8.98
2019-04-27T16:40:46.007Z,8.96
2019-04-27T16:46:50.642Z,9.27
2019-04-27T16:59:20.724Z,9.98
2019-04-27T17:05:08.503Z,10.05
2019-04-27T17:11:13.866Z,10.27
2019-04-27T17:12:40.067Z,9.57
2019-04-27T17:17:20.135Z,10.21
2019-04-27T17:23:31.199Z,10.41
2019-04-27T17:29:35.791Z,10.59
2019-04-27T17:35:42.675Z,10.65
2019-04-27T17:41:50.576Z,10.37
2019-04-27T17:47:53.001Z,10.47
2019-04-27T17:53:58.599Z,10.33
2019-04-27T18:00:05.324Z,10.20
2019-04-27T18:06:09.939Z,10.19
2019-04-27T18:12:15.798Z,10.36
2019-04-27T18:18:22.806Z,10.04
2019-04-27T18:24:30.282Z,9.91
2019-04-27T18:30:52.927Z,10.15
2019-04-27T18:36:57.470Z,10.06
2019-04-27T18:43:05.942Z,10.11
2019-04-27T18:49:22.618Z,9.64
2019-04-27T18:55:28.977Z,9.38
2019-04-27T19:01:33.626Z,9.67
2019-04-27T19:07:38.353Z,9.50
2019-04-27T19:13:42.863Z,9.63
2019-04-27T19:19:47.440Z,9.43
2019-04-27T19:26:08.643Z,9.26
2019-04-27T19:32:13.188Z,9.16
2019-04-27T19:38:18.572Z,9.14
2019-04-27T19:44:23.456Z,9.19
2019-04-27T19:50:28.627Z,8.91
2019-04-27T19:56:33.233Z,9.00
2019-04-27T20:02:38.250Z,9.01
2019-04-27T20:08:48.957Z,9.04
2019-04-27T20:14:56.635Z,9.16
2019-04-27T20:21:01.184Z,9.27
2019-04-27T20:27:05.728Z,9.25
2019-04-27T20:33:11.033Z,9.11
2019-04-27T20:39:15.781Z,9.08
2019-04-27T20:45:20.388Z,9.05
2019-04-27T20:51:31.020Z,9.04
2019-04-27T20:57:35.781Z,9.10
2019-04-27T21:03:41.935Z,8.94
2019-04-27T21:09:46.470Z,9.01
2019-04-27T21:15:51.064Z,8.89
2019-04-27T21:21:55.640Z,8.95
2019-04-27T21:28:14.923Z,9.09
2019-04-27T21:34:06.458Z,9.19
2019-04-27T21:40:13.658Z,8.97
2019-04-27T21:46:18.218Z,8.95
2019-04-27T21:52:27.350Z,8.87
2019-04-27T21:58:33.380Z,8.94
2019-04-27T22:04:38.694Z,9.05
2019-04-27T22:10:43.235Z,8.82
2019-04-27T22:16:47.771Z,9.12
2019-04-27T22:23:09.230Z,8.96
2019-04-27T22:29:13.780Z,9.05
2019-04-27T22:35:18.471Z,9.24
2019-04-27T22:41:24.723Z,9.08
2019-04-27T22:47:29.353Z,8.96
2019-04-27T22:53:33.969Z,8.96
2019-04-27T22:59:42.941Z,8.87
2019-04-27T23:05:47.614Z,8.81
2019-04-27T23:11:52.235Z,8.72
2019-04-27T23:17:57.481Z,8.70
2019-04-27T23:24:02.048Z,8.69
2019-04-27T23:30:08.564Z,8.60
2019-04-27T23:36:13.117Z,8.74
2019-04-27T23:42:17.746Z,8.54
2019-04-27T23:48:22.990Z,8.68
2019-04-27T23:54:28.564Z,8.52
